Capitol Logistics 283




TAPA
V.C. Bird International Airport
Antigua, AG
TJSJ
Luis Munoz Marin International Airport
San Juan, PR

Activity Log

Date Flight Route Aircraft Duration
No Flights Yet

Route Details

Aircraft Information
Group: Narrowbodies
Types: B738,B752
Route Data
Demand: V
Distance: 253nm
Duration: 1h 25m
Recm'd Route: ANU G633 GABAR COY RTE4 VEDAS SJU
Origin Wx: TAPA 270500Z 09008KT 060V130 9999 FEW020 26/21 Q1016 NOSIG
Dest. Wx: TJSJ 270556Z 10005KT 10SM FEW028 25/23 A3003 RMK AO2 SLP166 T02500228 10267 20250 58016
Notes:

Financial History
Total Freight: 0lbs
Average Load: 0lbs/flt
Fuel Used: 0lbs
Avg. Fuel Used: 0lbs/flt
Fuel Expense: $0
Avg. Fuel Expense: $0
Avg. Fuel Cost: $0/lbs
Total Gross Income: $0
Pilot Pay: $0
Total Expenses: $0
Total Revenue: $0
Average Revenue: $0